Time;durP1;ratioP1;P1;durP2;ratioP2;P2;SDS_P1;SDS_P2;PMS_P1;PMS_P2;Temp;Humidity;BMP_temperature;BMP_pressure;BME280_temperature;BME280_humidity;BME280_pressure;Samples;Min_cycle;Max_cycle;Signal;HPM_P1;HPM_P2
2023/04/14 00:01:52;;;;;;;3.67;2.00;;;;;;;4.57;100.00;95440.69;5013134;28;102031;-64
2023/04/14 00:04:19;;;;;;;4.70;1.40;;;;;;;4.55;100.00;95434.88;5010270;28;103291;-64
2023/04/14 00:06:46;;;;;;;2.63;1.80;;;;;;;4.60;100.00;95429.72;5010833;28;101927;-64
2023/04/14 00:09:13;;;;;;;3.17;1.80;;;;;;;4.60;100.00;95426.25;5010861;28;102361;-64
2023/04/14 00:11:41;;;;;;;4.30;1.87;;;;;;;4.52;100.00;95429.25;5010464;28;103310;-64
2023/04/14 00:14:09;;;;;;;1.77;1.60;;;;;;;4.47;100.00;95427.34;5009191;28;101830;-64
2023/04/14 00:16:38;;;;;;;2.60;1.67;;;;;;;4.47;100.00;95427.34;5009439;28;105124;-64
2023/04/14 00:19:06;;;;;;;2.83;1.50;;;;;;;4.51;100.00;95422.41;5008596;28;103693;-64
2023/04/14 00:21:33;;;;;;;1.40;1.30;;;;;;;4.52;100.00;95427.44;5008400;28;102094;-64
2023/04/14 00:24:00;;;;;;;4.07;2.10;;;;;;;4.48;100.00;95431.56;5012105;28;104958;-64
2023/04/14 00:26:27;;;;;;;3.00;1.93;;;;;;;4.62;100.00;95429.44;5009360;28;101791;-64
2023/04/14 00:28:54;;;;;;;3.33;2.20;;;;;;;4.55;100.00;95429.63;5009054;28;105636;-64
2023/04/14 00:31:22;;;;;;;3.43;2.27;;;;;;;4.58;100.00;95423.09;5008560;28;105153;-64
2023/04/14 00:33:51;;;;;;;4.20;2.20;;;;;;;4.55;100.00;95429.63;5008999;28;101832;-64
2023/04/14 00:36:17;;;;;;;2.67;2.33;;;;;;;4.51;100.00;95433.75;5008924;28;105598;-64
2023/04/14 00:38:45;;;;;;;3.97;2.43;;;;;;;4.53;100.00;95438.78;5008551;28;105225;-64
2023/04/14 00:41:12;;;;;;;3.10;2.17;;;;;;;4.55;100.00;95439.34;5008919;28;101935;-64
2023/04/14 00:43:39;;;;;;;1.67;1.57;;;;;;;4.38;100.00;95431.41;5008895;28;105152;-64
2023/04/14 00:46:06;;;;;;;3.63;1.80;;;;;;;4.45;100.00;95433.88;5011952;28;104219;-64
2023/04/14 00:48:35;;;;;;;1.80;1.53;;;;;;;4.47;100.00;95434.47;5008690;28;105225;-64
2023/04/14 00:51:03;;;;;;;1.40;1.30;;;;;;;4.24;100.00;95437.97;5008161;28;105534;-64
2023/04/14 00:53:31;;;;;;;2.13;1.60;;;;;;;4.22;100.00;95441.88;5008962;28;101922;-64
2023/04/14 00:55:59;;;;;;;2.17;1.97;;;;;;;4.17;100.00;95439.94;5009008;28;104764;-64
2023/04/14 00:58:26;;;;;;;3.03;2.10;;;;;;;4.18;100.00;95441.53;5008060;28;105230;-64
2023/04/14 01:00:56;;;;;;;2.20;1.77;;;;;;;4.25;100.00;95441.41;5008847;28;101983;-64
2023/04/14 01:03:24;;;;;;;2.20;2.00;;;;;;;4.23;100.00;95451.34;5008832;28;105475;-64
2023/04/14 01:05:52;;;;;;;2.63;2.43;;;;;;;4.27;100.00;95439.34;5008169;28;105218;-64
2023/04/14 01:08:21;;;;;;;2.10;2.00;;;;;;;4.23;100.00;95435.56;5012345;28;102420;-64
2023/04/14 01:10:59;;;;;;;1.77;1.67;;;;;;;4.16;100.00;95432.28;5007669;28;105263;-64
2023/04/14 01:13:35;;;;;;;2.70;1.80;;;;;;;4.13;100.00;95427.47;5008576;28;101836;-64
2023/04/14 01:16:07;;;;;;;2.33;1.60;;;;;;;4.07;100.00;95436.28;5008680;28;105048;-64
2023/04/14 01:18:41;;;;;;;1.40;1.30;;;;;;;4.07;100.00;95444.19;5008213;28;104963;-64
2023/04/14 01:21:13;;;;;;;1.73;1.50;;;;;;;4.07;100.00;95452.88;5007970;28;102117;-64
2023/04/14 01:23:48;;;;;;;2.47;1.70;;;;;;;4.09;100.00;95456.06;5008522;28;103628;-64
2023/04/14 01:26:28;;;;;;;3.23;2.10;;;;;;;4.11;100.00;95463.75;5008009;28;105041;-64
2023/04/14 01:29:30;;;;;;;2.63;2.43;;;;;;;4.23;100.00;95459.25;5008302;28;101854;-64
2023/04/14 01:32:04;;;;;;;2.00;1.90;;;;;;;4.25;100.00;95459.84;5011317;28;105222;-64
2023/04/14 01:34:38;;;;;;;1.53;1.43;;;;;;;4.28;100.00;95452.25;5011315;28;101889;-64
2023/04/14 01:37:08;;;;;;;1.73;1.50;;;;;;;4.24;100.00;95453.75;5012041;28;105597;-64
2023/04/14 01:39:37;;;;;;;1.40;1.30;;;;;;;4.19;100.00;95440.50;5010911;28;105361;-64
2023/04/14 01:42:07;;;;;;;1.60;1.50;;;;;;;4.17;100.00;95436.50;5011717;28;102080;-64
2023/04/14 01:44:39;;;;;;;1.60;1.50;;;;;;;4.04;100.00;95434.16;5011807;28;105805;-64
2023/04/14 01:47:11;;;;;;;1.80;1.70;;;;;;;4.02;100.00;95433.56;5011145;28;105048;-64
2023/04/14 01:49:40;;;;;;;1.90;1.80;;;;;;;3.99;100.00;95440.09;5011452;28;101775;-64
2023/04/14 01:52:10;;;;;;;2.53;1.97;;;;;;;4.08;100.00;95427.38;5011722;28;105131;-64
2023/04/14 01:54:40;;;;;;;1.80;1.53;;;;;;;4.10;100.00;95430.59;5013941;28;101918;-64
2023/04/14 01:57:09;;;;;;;1.80;1.70;;;;;;;3.99;100.00;95432.19;5011729;28;105418;-64
2023/04/14 01:59:38;;;;;;;2.90;1.50;;;;;;;4.00;100.00;95425.13;5010739;28;105423;-64
2023/04/14 02:02:10;;;;;;;2.10;1.43;;;;;;;4.03;100.00;95422.00;5011417;28;101897;-64
2023/04/14 02:04:38;;;;;;;2.13;1.70;;;;;;;4.06;100.00;95414.47;5011543;28;105183;-64
2023/04/14 02:07:07;;;;;;;2.40;1.50;;;;;;;4.04;100.00;95416.53;5010807;28;105956;-64
2023/04/14 02:09:36;;;;;;;2.10;1.60;;;;;;;4.00;100.00;95409.34;5011154;28;102014;-64
2023/04/14 02:12:06;;;;;;;2.57;1.40;;;;;;;3.98;100.00;95396.41;5011037;28;105101;-64
2023/04/14 02:14:36;;;;;;;1.67;1.43;;;;;;;3.89;100.00;95392.56;5014284;28;105892;-64
2023/04/14 02:17:04;;;;;;;1.30;1.20;;;;;;;3.85;100.00;95385.34;5011353;28;105510;-64
2023/04/14 02:19:34;;;;;;;1.53;1.37;;;;;;;3.82;100.00;95386.63;5010597;28;105724;-64
2023/04/14 02:22:03;;;;;;;1.23;1.23;;;;;;;3.78;100.00;95379.44;5010746;28;101829;-64
2023/04/14 02:24:32;;;;;;;1.33;1.23;;;;;;;3.84;100.00;95386.41;5012298;28;102506;-64
2023/04/14 02:27:07;;;;;;;1.33;1.23;;;;;;;3.82;100.00;95386.63;5010667;28;105583;-64
2023/04/14 02:29:37;;;;;;;1.10;1.10;;;;;;;3.72;100.00;95396.16;5012604;28;101671;-64
2023/04/14 02:32:10;;;;;;;1.37;1.27;;;;;;;3.76;100.00;95397.28;5010987;28;105616;-64
2023/04/14 02:34:47;;;;;;;1.23;1.13;;;;;;;3.82;100.00;95405.03;5010183;28;105480;-64
2023/04/14 02:37:18;;;;;;;1.03;0.90;;;;;;;3.78;100.00;95405.72;5014355;28;101927;-64
2023/04/14 02:39:53;;;;;;;1.33;1.23;;;;;;;3.75;100.00;95409.63;5010310;28;105291;-64
2023/04/14 02:42:26;;;;;;;1.17;1.17;;;;;;;3.76;100.00;95416.47;5010966;28;101831;-64
2023/04/14 02:44:58;;;;;;;1.33;1.20;;;;;;;3.75;100.00;95419.31;5009501;28;104409;-64
2023/04/14 02:47:29;;;;;;;1.17;1.17;;;;;;;3.75;100.00;95414.06;5010322;28;105033;-64
2023/04/14 02:50:03;;;;;;;1.10;1.10;;;;;;;3.75;100.00;95416.69;5010762;28;101909;-64
2023/04/14 02:52:32;;;;;;;1.30;1.20;;;;;;;3.69;100.00;95423.69;5010621;28;104983;-64
2023/04/14 02:55:02;;;;;;;1.10;1.10;;;;;;;3.61;100.00;95410.13;5009978;28;103973;-64
2023/04/14 02:57:31;;;;;;;2.00;1.20;;;;;;;3.64;100.00;95404.38;5010794;28;101786;-64
2023/04/14 02:59:59;;;;;;;2.67;1.10;;;;;;;3.61;100.00;95396.97;5013495;28;105123;-64
2023/04/14 03:02:28;;;;;;;1.07;1.07;;;;;;;3.68;100.00;95395.81;5010510;28;101931;-64
2023/04/14 03:05:09;;;;;;;1.20;1.10;;;;;;;3.72;100.00;95393.53;5010375;28;105545;-64
2023/04/14 03:07:55;;;;;;;1.30;1.20;;;;;;;3.77;100.00;95398.88;5009786;28;105084;-64
2023/04/14 03:10:23;;;;;;;1.33;1.23;;;;;;;3.74;100.00;95388.81;5010338;28;101878;-64
2023/04/14 03:12:51;;;;;;;1.00;1.00;;;;;;;3.75;100.00;95393.03;5010233;28;104049;-64
2023/04/14 03:15:20;;;;;;;1.00;1.00;;;;;;;3.65;100.00;95390.22;5009493;28;105221;-64
2023/04/14 03:17:52;;;;;;;0.80;0.80;;;;;;;3.45;100.00;95390.56;5010353;28;101907;-64
2023/04/14 03:20:23;;;;;;;1.83;1.37;;;;;;;3.47;100.00;95399.03;4993767;28;105527;-64
2023/04/14 03:22:57;;;;;;;0.93;0.93;;;;;;;3.51;100.00;95394.94;5012798;28;105487;-64
2023/04/14 03:25:27;;;;;;;1.40;1.30;;;;;;;3.51;100.00;95399.38;5010211;28;103790;-64
2023/04/14 03:27:58;;;;;;;1.30;1.20;;;;;;;3.48;100.00;95399.81;5009647;28;105056;-64
2023/04/14 03:30:29;;;;;;;1.87;1.50;;;;;;;3.52;100.00;95406.22;5010268;28;101883;-64
2023/04/14 03:33:00;;;;;;;3.10;1.87;;;;;;;3.45;100.00;95405.56;5010391;28;105208;-64
2023/04/14 03:35:29;;;;;;;3.17;2.17;;;;;;;3.58;100.00;95410.56;5009451;28;105207;-64
2023/04/14 03:38:01;;;;;;;2.20;1.80;;;;;;;3.52;100.00;95407.03;5009686;28;102194;-64
2023/04/14 03:40:31;;;;;;;2.43;1.93;;;;;;;3.60;100.00;95398.78;5010030;28;105019;-64
2023/04/14 03:43:01;;;;;;;2.57;1.60;;;;;;;3.55;100.00;95400.53;5009251;28;104994;-64
2023/04/14 03:45:31;;;;;;;2.00;1.40;;;;;;;3.56;100.00;95397.63;5013347;28;101823;-64
2023/04/14 03:48:02;;;;;;;1.57;1.37;;;;;;;3.37;100.00;95392.75;5008963;28;105491;-64
2023/04/14 03:50:36;;;;;;;1.37;1.10;;;;;;;3.33;100.00;95381.13;5009626;28;101937;-64
2023/04/14 03:53:05;;;;;;;1.60;1.50;;;;;;;3.34;100.00;95385.34;5009616;28;104949;-64
2023/04/14 03:55:35;;;;;;;3.70;1.90;;;;;;;3.29;100.00;95379.97;5008961;28;105564;-64
2023/04/14 03:58:04;;;;;;;2.10;1.57;;;;;;;3.25;100.00;95376.19;5009743;28;101890;-64
2023/04/14 04:00:32;;;;;;;2.67;1.90;;;;;;;3.28;100.00;95386.25;5009312;28;105234;-64
2023/04/14 04:03:01;;;;;;;5.60;2.40;;;;;;;3.27;100.00;95387.31;5009012;28;105350;-64
2023/04/14 04:05:29;;;;;;;3.67;2.33;;;;;;;3.29;100.00;95396.53;5012966;28;101782;-64
2023/04/14 04:08:01;;;;;;;3.63;1.87;;;;;;;3.23;100.00;95397.44;5008780;28;104880;-64
2023/04/14 04:10:30;;;;;;;2.03;1.40;;;;;;;3.30;100.00;95394.72;5009507;28;101795;-64
2023/04/14 04:12:59;;;;;;;3.67;2.40;;;;;;;3.24;100.00;95393.00;5009150;28;105378;-64
2023/04/14 04:15:28;;;;;;;3.13;1.93;;;;;;;3.29;100.00;95391.28;5008751;28;105255;-64
2023/04/14 04:17:57;;;;;;;1.50;1.40;;;;;;;3.35;100.00;95397.44;5009243;28;102030;-64
2023/04/14 04:20:26;;;;;;;1.10;1.10;;;;;;;3.30;100.00;95403.41;5008891;28;105589;-65
2023/04/14 04:23:01;;;;;;;1.20;1.20;;;;;;;3.36;100.00;95402.47;5008425;28;105826;-64
2023/04/14 04:25:28;;;;;;;1.13;1.13;;;;;;;3.40;100.00;95413.31;5009426;28;101887;-64
2023/04/14 04:28:06;;;;;;;1.07;1.07;;;;;;;3.34;100.00;95419.50;5011805;28;105309;-64
2023/04/14 04:30:38;;;;;;;0.90;0.90;;;;;;;3.32;100.00;95421.53;5010671;28;101812;-64
2023/04/14 04:33:06;;;;;;;1.53;1.40;;;;;;;3.29;100.00;95430.66;5009114;28;104910;-64
2023/04/14 04:35:34;;;;;;;2.93;2.60;;;;;;;3.12;100.00;95432.38;5008515;28;105676;-64
2023/04/14 04:38:07;;;;;;;3.67;2.87;;;;;;;3.10;100.00;95417.88;5009004;28;101859;-64
2023/04/14 04:40:37;;;;;;;3.43;2.27;;;;;;;3.02;100.00;95429.53;5009297;28;105921;-64
2023/04/14 04:43:08;;;;;;;1.77;1.63;;;;;;;3.09;100.00;95442.53;5008318;28;105300;-64
2023/04/14 04:45:49;;;;;;;1.30;1.17;;;;;;;3.15;100.00;95445.06;5009124;28;102027;-64
2023/04/14 04:48:16;;;;;;;1.20;1.20;;;;;;;3.15;100.00;95446.88;5010265;28;102511;-64
2023/04/14 04:50:44;;;;;;;1.10;1.10;;;;;;;3.13;100.00;95441.88;5011682;28;105466;-64
2023/04/14 04:53:13;;;;;;;1.10;1.00;;;;;;;3.13;100.00;95443.69;5008906;28;105685;-64
2023/04/14 04:55:41;;;;;;;1.10;1.10;;;;;;;3.08;100.00;95447.03;5008096;28;105563;-64
2023/04/14 04:58:08;;;;;;;1.03;1.03;;;;;;;2.95;100.00;95447.22;5010204;28;101820;-64
2023/04/14 05:00:36;;;;;;;1.10;1.10;;;;;;;2.77;100.00;95439.41;5008769;28;105257;-64
2023/04/14 05:03:02;;;;;;;0.90;0.90;;;;;;;2.63;100.00;95439.84;5008016;28;105671;-64
2023/04/14 05:05:29;;;;;;;1.20;1.20;;;;;;;2.65;100.00;95429.91;5008787;28;102094;-64
2023/04/14 05:07:56;;;;;;;1.80;1.70;;;;;;;2.55;100.00;95427.03;5008950;28;103726;-64
2023/04/14 05:10:25;;;;;;;1.20;1.20;;;;;;;2.65;100.00;95430.72;4995024;28;106617;-64
2023/04/14 05:12:52;;;;;;;1.40;1.40;;;;;;;2.71;100.00;95418.50;5015445;28;101925;-64
2023/04/14 05:15:19;;;;;;;1.17;1.17;;;;;;;2.71;100.00;95423.75;5011616;28;105149;-64
2023/04/14 05:17:47;;;;;;;1.77;1.67;;;;;;;2.79;100.00;95426.84;5012028;28;101973;-64
2023/04/14 05:20:14;;;;;;;2.97;2.73;;;;;;;2.96;100.00;95421.75;5011999;28;105151;-64
2023/04/14 05:22:41;;;;;;;3.27;2.27;;;;;;;2.93;100.00;95422.19;5010940;28;105775;-64
2023/04/14 05:25:08;;;;;;;2.10;2.00;;;;;;;3.04;100.00;95416.16;5012054;28;101910;-64
2023/04/14 05:27:37;;;;;;;2.87;2.67;;;;;;;2.96;100.00;95411.25;5012253;28;105124;-64
2023/04/14 05:30:04;;;;;;;6.03;4.53;;;;;;;3.05;100.00;95423.81;5011215;28;104317;-64
2023/04/14 05:32:31;;;;;;;4.57;3.30;;;;;;;3.14;100.00;95416.41;5011909;28;101883;-64
2023/04/14 05:34:58;;;;;;;1.50;1.40;;;;;;;3.11;100.00;95409.00;5014436;28;104842;-64
2023/04/14 05:37:28;;;;;;;1.20;1.10;;;;;;;3.07;100.00;95406.00;5012035;28;101852;-64
2023/04/14 05:39:58;;;;;;;1.50;1.40;;;;;;;3.13;100.00;95413.00;5011841;28;105230;-64
2023/04/14 05:42:25;;;;;;;1.63;1.53;;;;;;;3.18;100.00;95414.94;5011121;28;105193;-64
2023/04/14 05:44:53;;;;;;;1.30;1.30;;;;;;;3.11;100.00;95432.63;5011838;28;101898;-64
2023/04/14 05:47:20;;;;;;;1.63;1.53;;;;;;;3.09;100.00;95426.78;5011491;28;105167;-64
2023/04/14 05:49:47;;;;;;;1.43;1.30;;;;;;;3.02;100.00;95433.97;5011005;28;103195;-64
2023/04/14 05:52:14;;;;;;;1.70;1.60;;;;;;;3.09;100.00;95435.47;5012966;28;101917;-64
2023/04/14 05:54:53;;;;;;;1.70;1.60;;;;;;;3.12;100.00;95431.59;5011849;28;105112;-64
2023/04/14 05:57:20;;;;;;;1.73;1.63;;;;;;;3.06;100.00;95432.50;5014952;28;105207;-64
2023/04/14 05:59:47;;;;;;;2.00;1.90;;;;;;;3.02;100.00;95439.25;5012026;28;104029;-64
2023/04/14 06:02:15;;;;;;;1.90;1.80;;;;;;;2.96;100.00;95437.53;5011141;28;105805;-64
2023/04/14 06:04:43;;;;;;;1.60;1.50;;;;;;;2.87;100.00;95433.59;5011881;28;102125;-64
2023/04/14 06:07:10;;;;;;;1.47;1.37;;;;;;;2.95;100.00;95435.91;5011660;28;104813;-64
2023/04/14 06:09:36;;;;;;;1.47;1.40;;;;;;;3.03;100.00;95435.56;5011121;28;105369;-64
2023/04/14 06:12:03;;;;;;;1.60;1.50;;;;;;;3.01;100.00;95443.69;5011293;28;101858;-64
2023/04/14 06:14:30;;;;;;;1.90;1.80;;;;;;;3.03;100.00;95443.44;5011703;28;103775;-64
2023/04/14 06:16:57;;;;;;;1.70;1.60;;;;;;;3.00;100.00;95436.03;5014145;28;105462;-64
2023/04/14 06:19:25;;;;;;;2.23;1.73;;;;;;;3.03;100.00;95446.09;5011433;28;104901;-64
2023/04/14 06:21:52;;;;;;;1.80;1.70;;;;;;;3.03;100.00;95446.09;5010422;28;105287;-70
2023/04/14 06:24:21;;;;;;;2.00;1.90;;;;;;;3.13;100.00;95441.06;5011399;28;101907;-69
2023/04/14 06:26:48;;;;;;;1.70;1.60;;;;;;;3.06;100.00;95435.91;5010925;28;104989;-62
2023/04/14 06:29:15;;;;;;;2.27;1.90;;;;;;;3.12;100.00;95439.47;5012094;28;103049;-63
2023/04/14 06:31:42;;;;;;;2.30;2.10;;;;;;;3.23;100.00;95433.44;5011182;28;101955;-63
2023/04/14 06:34:16;;;;;;;2.00;1.90;;;;;;;3.26;100.00;95440.84;5012590;28;102301;-64
2023/04/14 06:36:44;;;;;;;2.73;2.53;;;;;;;3.41;100.00;95442.00;5012111;28;103131;-65
2023/04/14 06:39:12;;;;;;;2.13;2.00;;;;;;;3.47;100.00;95442.91;5014667;28;102319;-65
2023/04/14 06:41:39;;;;;;;1.93;1.83;;;;;;;3.47;100.00;95441.09;5010617;28;105269;-65
2023/04/14 06:44:20;;;;;;;2.30;2.03;;;;;;;3.57;100.00;95446.56;5011121;28;101961;-65
2023/04/14 06:46:47;;;;;;;2.70;2.50;;;;;;;3.52;100.00;95440.38;5011053;28;105064;-65
2023/04/14 06:49:16;;;;;;;2.43;2.23;;;;;;;3.61;100.00;95445.06;5010342;28;105007;-65
2023/04/14 06:51:44;;;;;;;2.60;2.40;;;;;;;3.65;100.00;95442.81;5010947;28;101859;-65
2023/04/14 06:54:50;;;;;;;2.70;2.50;;;;;;;3.67;100.00;95452.03;5010736;28;105321;-65
2023/04/14 06:57:17;;;;;;;2.87;2.37;;;;;;;3.56;100.00;95446.78;5011850;28;102860;-65
2023/04/14 06:59:43;;;;;;;1.50;1.40;;;;;;;3.56;100.00;95444.16;5010683;28;101862;-65
2023/04/14 07:02:10;;;;;;;1.70;1.60;;;;;;;3.63;100.00;95439.59;5014849;28;101754;-65
2023/04/14 07:04:39;;;;;;;2.40;1.40;;;;;;;3.60;100.00;95446.09;5010735;28;101973;-65
2023/04/14 07:07:08;;;;;;;1.60;1.50;;;;;;;3.49;100.00;95454.00;5010563;28;105251;-64
2023/04/14 07:09:34;;;;;;;2.00;1.50;;;;;;;3.46;100.00;95449.19;5010094;28;104321;-64
2023/04/14 07:12:02;;;;;;;2.63;1.50;;;;;;;3.50;100.00;95445.88;5010419;28;101859;-64
2023/04/14 07:17:52;;;;;;;2.37;1.73;;;;;;;3.49;100.00;95452.16;5009905;28;104681;-65
2023/04/14 07:20:18;;;;;;;1.80;1.70;;;;;;;3.56;100.00;95446.78;5010339;28;101875;-64
2023/04/14 07:22:47;;;;;;;2.90;1.70;;;;;;;3.55;100.00;95445.19;5009962;28;105014;-65
2023/04/14 07:25:14;;;;;;;4.60;2.83;;;;;;;3.55;100.00;95447.84;5013092;28;105232;-65
2023/04/14 07:27:41;;;;;;;2.07;1.87;;;;;;;3.59;100.00;95446.31;5010014;28;105460;-65
2023/04/14 07:30:08;;;;;;;2.60;1.90;;;;;;;3.55;100.00;95458.34;5009667;28;105767;-64
2023/04/14 07:32:36;;;;;;;5.23;3.53;;;;;;;3.59;100.00;95454.22;5009520;28;101947;-64
2023/04/14 07:35:03;;;;;;;4.13;2.60;;;;;;;3.54;100.00;95449.66;5010295;28;105636;-64
2023/04/14 07:37:31;;;;;;;3.37;2.27;;;;;;;3.59;100.00;95448.94;5009513;28;105395;-64
2023/04/14 07:39:59;;;;;;;3.57;2.17;;;;;;;3.64;100.00;95462.19;5010051;28;101866;-63
2023/04/14 07:42:27;;;;;;;2.73;2.20;;;;;;;3.67;100.00;95456.50;5009996;28;105108;-63
2023/04/14 07:45:03;;;;;;;5.53;3.00;;;;;;;3.72;100.00;95467.13;5009009;28;104672;-63
2023/04/14 07:47:32;;;;;;;7.57;6.40;;;;;;;3.74;100.00;95472.94;5013416;28;101845;-63
2023/04/14 07:49:59;;;;;;;3.40;2.63;;;;;;;3.78;100.00;95469.63;5009028;28;105035;-63
2023/04/14 07:52:25;;;;;;;6.17;3.20;;;;;;;3.82;100.00;95475.25;5009825;28;101951;-63
2023/04/14 07:54:53;;;;;;;3.30;2.50;;;;;;;3.85;100.00;95480.84;5009896;28;104982;-63
2023/04/14 07:57:22;;;;;;;4.37;2.80;;;;;;;3.82;100.00;95483.91;5009238;28;105517;-63
2023/04/14 07:59:49;;;;;;;6.07;3.27;;;;;;;3.96;100.00;95489.72;5009861;28;101850;-63
2023/04/14 08:02:16;;;;;;;5.43;3.50;;;;;;;3.95;100.00;95496.03;5009786;28;105417;-64
2023/04/14 08:05:01;;;;;;;3.03;2.83;;;;;;;4.04;100.00;95505.16;5009016;28;105435;-63
2023/04/14 08:07:28;;;;;;;4.57;3.10;;;;;;;4.10;100.00;95504.25;5009804;28;101757;-63
2023/04/14 08:09:55;;;;;;;3.90;3.20;;;;;;;3.99;100.00;95489.28;5012408;28;105086;-63
2023/04/14 08:12:24;;;;;;;3.10;2.63;;;;;;;4.06;100.00;95476.78;5009629;28;101884;-63
2023/04/14 08:15:24;;;;;;;2.77;2.57;;;;;;;4.21;100.00;95477.09;5009742;28;103766;-63
2023/04/14 08:17:51;;;;;;;4.03;3.60;;;;;;;4.32;100.00;95471.00;4912876;28;105205;-63
2023/04/14 08:20:18;;;;;;;3.20;2.90;;;;;;;4.36;100.00;95472.94;4913384;28;102099;-63
2023/04/14 08:22:45;;;;;;;3.33;3.03;;;;;;;4.26;100.00;95471.94;4912890;28;103767;-63
2023/04/14 08:25:13;;;;;;;2.57;2.37;;;;;;;4.41;100.00;95480.94;4913018;28;105803;-63
2023/04/14 08:27:42;;;;;;;2.77;2.07;;;;;;;4.29;100.00;95476.72;4913317;28;102072;-63
2023/04/14 08:30:10;;;;;;;2.40;2.20;;;;;;;4.29;100.00;95476.72;4916116;28;105192;-64
2023/04/14 08:32:36;;;;;;;1.67;1.57;;;;;;;4.25;100.00;95478.25;4913398;28;102129;-64
2023/04/14 08:35:09;;;;;;;1.80;1.70;;;;;;;4.31;100.00;95493.09;4913383;28;105427;-63
2023/04/14 08:37:36;;;;;;;1.80;1.70;;;;;;;4.34;100.00;95490.00;4912940;28;104976;-63
2023/04/14 08:40:03;;;;;;;1.53;1.43;;;;;;;4.38;100.00;95491.13;4913383;28;101882;-63
2023/04/14 08:42:30;;;;;;;2.10;1.90;;;;;;;4.57;100.00;95485.44;4912493;28;105300;-63
2023/04/14 08:45:01;;;;;;;2.40;2.20;;;;;;;4.62;100.00;95472.38;4912517;28;105112;-63
2023/04/14 08:47:30;;;;;;;2.23;1.60;;;;;;;4.63;100.00;95476.59;4913231;28;101987;-63
2023/04/14 08:50:04;;;;;;;1.70;1.60;;;;;;;4.69;100.00;95467.78;4913159;28;105191;-63
2023/04/14 08:52:34;;;;;;;2.00;1.77;;;;;;;4.67;100.00;95453.25;4916089;28;105221;-63
2023/04/14 08:55:15;;;;;;;3.47;2.20;;;;;;;4.51;100.00;95459.25;4956956;28;104960;-63
2023/04/14 08:57:45;;;;;;;2.53;1.77;;;;;;;4.61;100.00;95462.09;5010100;28;102493;-63
2023/04/14 09:00:14;;;;;;;2.33;2.07;;;;;;;4.65;100.00;95466.63;5010506;28;101798;-63
2023/04/14 09:02:42;;;;;;;3.37;1.80;;;;;;;4.78;100.00;95476.09;5009081;28;104784;-63
2023/04/14 09:08:33;;;;;;;2.10;1.90;;;;;;;4.65;100.00;95460.59;5008968;28;101838;-64
2023/04/14 09:11:01;;;;;;;2.13;1.70;;;;;;;4.66;100.00;95446.38;5009120;28;104736;-64
2023/04/14 09:13:31;;;;;;;2.30;2.17;;;;;;;4.88;100.00;95449.94;5009647;28;102794;-66
2023/04/14 09:16:00;;;;;;;1.77;1.67;;;;;;;4.91;100.00;95444.19;5013921;28;101682;-64
2023/04/14 09:18:30;;;;;;;2.70;2.50;;;;;;;4.83;100.00;95447.19;5008309;28;105444;-64
2023/04/14 09:20:58;;;;;;;2.00;1.80;;;;;;;4.83;100.00;95461.19;5008272;28;101951;-63
2023/04/14 09:23:32;;;;;;;1.53;1.47;;;;;;;4.93;100.00;95471.09;5008720;28;105055;-62
2023/04/14 09:26:00;;;;;;;2.07;1.60;;;;;;;4.98;100.00;95460.63;5008502;28;105408;-64
2023/04/14 09:28:27;;;;;;;2.23;2.03;;;;;;;5.01;100.00;95450.44;5009693;28;101927;-63
2023/04/14 09:30:54;;;;;;;2.77;1.77;;;;;;;5.04;100.00;95471.03;5008789;28;104928;-64
2023/04/14 09:33:23;;;;;;;1.50;1.40;;;;;;;4.99;100.00;95493.84;5008044;28;105951;-63
2023/04/14 09:35:53;;;;;;;1.60;1.50;;;;;;;4.94;100.00;95505.09;5008739;28;101826;-66
2023/04/14 09:38:33;;;;;;;1.40;1.30;;;;;;;4.99;100.00;95493.84;5011309;28;106089;-64
2023/04/14 09:41:00;;;;;;;2.67;1.90;;;;;;;5.15;100.00;95506.25;5008552;28;101793;-64
2023/04/14 09:43:29;;;;;;;1.93;1.83;;;;;;;5.09;100.00;95509.84;5008591;28;104938;-64
2023/04/14 09:46:03;;;;;;;2.60;1.90;;;;;;;5.02;100.00;95506.56;5009613;28;102628;-65
2023/04/14 09:48:33;;;;;;;1.93;1.40;;;;;;;4.91;100.00;95505.56;5008570;28;101804;-64
2023/04/14 09:51:02;;;;;;;3.67;1.87;;;;;;;4.91;100.00;95502.94;5008459;28;105109;-64
2023/04/14 09:53:39;;;;;;;1.93;1.40;;;;;;;4.88;100.00;95508.69;5007767;28;103944;-64
2023/04/14 09:56:08;;;;;;;1.53;1.43;;;;;;;5.00;100.00;95511.25;5012953;28;101800;-64
2023/04/14 09:58:36;;;;;;;1.60;1.50;;;;;;;4.99;100.00;95518.38;5012065;28;104975;-64
2023/04/14 10:01:04;;;;;;;1.73;1.63;;;;;;;5.19;100.00;95510.00;5014479;28;105601;-64
2023/04/14 10:03:39;;;;;;;2.50;2.30;;;;;;;5.14;100.00;95513.34;5011632;28;104882;-66
2023/04/14 10:06:10;;;;;;;2.73;1.50;;;;;;;5.11;100.00;95518.28;5011103;28;104585;-63
2023/04/14 10:08:39;;;;;;;1.50;1.40;;;;;;;5.16;100.00;95527.09;5011662;28;101879;-63
2023/04/14 10:11:20;;;;;;;1.77;1.67;;;;;;;5.18;100.00;95529.50;5011554;28;104056;-63
2023/04/14 10:13:48;;;;;;;2.87;1.80;;;;;;;5.07;100.00;95517.97;5044531;27;105250;-63
2023/04/14 10:16:15;;;;;;;1.47;1.37;;;;;;;5.10;100.00;95506.16;5011585;28;101830;-63
2023/04/14 10:18:44;;;;;;;11.30;8.03;;;;;;;4.93;100.00;95510.59;5011238;28;104572;-63
2023/04/14 10:21:11;;;;;;;1.93;1.50;;;;;;;4.95;100.00;95514.59;5010337;28;105107;-63
2023/04/14 10:23:52;;;;;;;1.50;1.40;;;;;;;4.95;100.00;95503.25;5014530;28;101948;-63
2023/04/14 10:26:19;;;;;;;2.47;2.20;;;;;;;5.07;100.00;95506.66;5010842;28;105416;-63
2023/04/14 10:28:48;;;;;;;1.43;1.33;;;;;;;4.95;100.00;95508.53;5012595;28;102303;-63
2023/04/14 10:31:22;;;;;;;1.23;1.17;;;;;;;4.93;100.00;95507.97;5011306;28;105082;-63
2023/04/14 10:33:54;;;;;;;2.10;1.30;;;;;;;5.00;100.00;95508.63;5010603;28;105255;-63
2023/04/14 10:36:25;;;;;;;1.53;1.20;;;;;;;4.97;100.00;95511.75;5011414;28;101872;-63
2023/04/14 10:38:59;;;;;;;1.30;1.20;;;;;;;4.85;100.00;95503.09;5011059;28;105211;-63
2023/04/14 10:41:26;;;;;;;1.20;1.20;;;;;;;4.85;100.00;95493.34;5010621;28;105079;-63
2023/04/14 10:43:55;;;;;;;1.10;1.10;;;;;;;4.84;100.00;95497.03;5014534;28;101849;-64
2023/04/14 10:46:23;;;;;;;1.63;1.20;;;;;;;4.85;100.00;95482.03;5011902;28;102594;-63
2023/04/14 10:48:54;;;;;;;1.10;1.10;;;;;;;4.78;100.00;95478.72;5011015;28;102080;-64
2023/04/14 10:51:33;;;;;;;1.30;1.10;;;;;;;4.77;100.00;95479.75;5010653;28;105612;-63
2023/04/14 10:54:17;;;;;;;1.30;1.20;;;;;;;4.97;100.00;95472.22;5011745;28;102568;-64
2023/04/14 10:57:08;;;;;;;0.87;0.87;;;;;;;4.98;100.00;95465.91;5010828;28;101730;-63
2023/04/14 10:59:35;;;;;;;2.03;1.20;;;;;;;5.10;100.00;95456.09;5012442;28;102499;-63
2023/04/14 11:02:02;;;;;;;1.37;1.27;;;;;;;5.12;100.00;95452.19;5011496;28;102637;-63
2023/04/14 11:07:57;;;;;;;2.27;2.00;;;;;;;5.10;100.00;95458.72;5014660;28;101679;-63
2023/04/14 11:10:26;;;;;;;1.60;1.50;;;;;;;5.07;100.00;95461.84;5010917;28;101857;-63
2023/04/14 11:13:25;;;;;;;1.60;1.50;;;;;;;5.00;100.00;95463.81;5010516;28;105208;-63
2023/04/14 11:15:57;;;;;;;1.70;1.60;;;;;;;5.01;100.00;95460.16;5009897;28;105318;-63
2023/04/14 11:18:32;;;;;;;1.83;1.73;;;;;;;4.98;100.00;95456.19;5010459;28;101812;-63
2023/04/14 11:21:05;;;;;;;2.17;2.00;;;;;;;5.13;100.00;95450.38;5009989;28;105091;-63
2023/04/14 11:23:47;;;;;;;2.10;2.00;;;;;;;5.21;100.00;95450.75;5009867;28;103910;-64
2023/04/14 11:26:14;;;;;;;3.33;2.00;;;;;;;5.25;100.00;95445.81;5010427;28;101760;-64
2023/04/14 11:28:43;;;;;;;3.00;2.53;;;;;;;5.25;100.00;95432.63;5010118;28;104995;-63
2023/04/14 11:31:11;;;;;;;2.60;2.40;;;;;;;5.37;100.00;95430.69;5046923;27;104021;-63
2023/04/14 11:33:48;;;;;;;3.00;2.37;;;;;;;5.41;100.00;95424.69;5011651;28;102531;-63
2023/04/14 11:36:15;;;;;;;3.20;2.90;;;;;;;5.45;100.00;95425.03;5011200;28;102578;-63
2023/04/14 11:38:44;;;;;;;2.77;2.57;;;;;;;5.46;100.00;95426.63;5010051;28;102263;-63
2023/04/14 11:41:15;;;;;;;3.03;2.80;;;;;;;5.54;100.00;95439.38;5009998;28;105520;-63
2023/04/14 11:43:51;;;;;;;2.47;2.30;;;;;;;5.49;100.00;95452.50;5010906;28;102493;-63
2023/04/14 11:46:20;;;;;;;2.77;2.57;;;;;;;5.65;100.00;95441.13;5011707;28;101762;-63
2023/04/14 11:48:47;;;;;;;2.77;2.53;;;;;;;5.71;100.00;95433.06;5010129;28;105101;-63